Historyczne dane pomiarowe

Dodano dane terminowe – wersja testowa.

Dane z okresu 1951-2019

Wersja bazy: 1.34 [2019-03-16, lista zmian], aktualizacja planowana na 2019-04-15

Dane meteo z obszaru Polski uzyskane na podstawie danych udostępnionych przez Instytut Meteorologii i Gospodarki Wodnej – Państwowy Instytut Badawczy.

 

Wybierz Datę:    

       

TemperaturaWilgotnośćWiatrCiśnienieOpadyŚniegCzas trwania zjawisk
 Stacja t tx tn tng RH VA  wxwx mslp ppp RRR   cm mm wxwxwxwxwxwxwx
1999-08-14 15.4 20.5 9.3 6.8 70.5- 5.3 1.3---- 0.2------------
1999-08-13 15.9 20.7 11.3 9.1 75.8- 6.7 1.3---- 0.0------------
1999-08-12 18.1 22.0 15.2 14.5 67.5- 4.7 2.0---- 0.0------------
1999-08-11 21.0 25.9 17.1 16.3 78.0- 5.7 1.7---- 0.2------------
1999-08-10 22.1 30.3 14.7 11.5 75.0- 5.3 0.7---- 9.2------------
1999-08-09 24.4 31.8 17.7 14.5 65.3- 4.0 1.3---- 0.0------------
1999-08-08 23.3 28.6 17.8 14.5 76.0- 6.0 2.3---- 0.0------------
1999-08-07 20.6 28.5 13.7 10.9 81.8- 7.7 0.7---- 0.0------------
1999-08-06 19.3 24.3 13.8 10.9 75.8- 5.7 0.0---- 0.0------------
1999-08-05 18.8 25.9 11.8 9.6 74.0- 5.7 0.0---- 0.0------------
1999-08-04 18.2 25.3 10.9 8.6 73.8- 6.3 0.3---- 0.0------------
1999-08-03 19.2 25.9 13.7 13.1 62.8- 6.3 1.0---- 0.0------------
1999-08-02 19.5 24.9 14.9 13.6 63.8- 6.0 1.7---- 0.0------------
1999-08-01 19.4 24.9 13.5 11.1 65.3- 6.7 0.7---- 0.0------------
1999-07-31 18.7 25.4 10.8 8.1 57.0- 4.7 2.0---- 0.0------------
1999-07-30 18.5 24.4 11.3 8.6 58.8- 2.3 1.0---- 0.0------------
1999-07-29 18.2 23.4 12.3 9.6 62.3- 3.3 2.0---- 0.0------------
1999-07-28 17.9 21.4 15.6 13.6 88.5- 6.0 0.3---- 0.6------------
1999-07-27 20.0 25.0 16.7 16.9 79.5- 6.7 3.0---- 10.7------------
1999-07-26 21.4 27.4 13.3 11.1 68.0- 6.0 1.0---- 0.0------------
1999-07-25 19.3 25.4 12.3 10.6 67.0- 3.0 0.3---- 0.0------------
1999-07-24 18.2 22.4 13.3 12.0 78.3- 6.3 1.3---- 0.0------------
1999-07-23 16.8 21.2 13.7 11.9 81.5- 8.0 0.7---- 6.6------------
1999-07-22 21.7 27.5 18.1 16.3 72.3- 6.7 1.7---- 0.0------------
1999-07-21 22.9 29.3 15.2 13.6 64.5- 6.3 2.0---- 1.6------------
1999-07-20 22.3 28.8 14.2 12.6 65.5- 2.7 0.7---- 0.0------------
1999-07-19 19.8 28.3 13.2 11.5 76.0- 7.0 1.7---- 0.5------------
1999-07-18 18.8 25.4 11.8 10.4 67.5- 6.7 0.0---- 0.1------------
1999-07-17 17.2 22.5 10.3 8.1 71.8- 4.3 0.0---- 0.0------------
1999-07-16 16.4 20.9 10.8 9.0 70.5- 5.0 1.0---- 0.9------------
1999-07-15 17.7 22.4 14.2 14.4 81.0- 6.7 2.7---- 0.0------------
1999-07-14 21.6 27.1 18.1 16.5 86.0- 8.0 1.0---- 10.2------------
1999-07-13 21.5 28.3 16.2 14.6 73.0- 7.0 1.7---- 6.1------------
1999-07-12 22.1 28.8 15.2 14.3 56.8- 7.0 2.7---- 0.0------------
1999-07-11 21.1 27.3 14.2 12.6 53.0- 3.0 3.3---- 0.0------------
1999-07-10 21.3 25.5 16.7 15.1 55.5- 2.0 6.0---- 0.0------------
1999-07-09 21.6 25.5 18.2 18.0 75.0- 6.0 1.7---- 0.0------------
1999-07-08 21.0 24.6 18.0 17.5 86.5- 7.7 1.7---- 13.0------------
1999-07-07 24.0 28.3 21.1 18.4 71.5- 6.7 1.3---- 4.3------------
1999-07-06 26.3 32.3 19.7 17.6 62.5- 3.0 1.7---- 0.0------------
1999-07-05 25.1 32.4 17.3 14.3 62.3- 5.7 1.3---- 0.0------------
1999-07-04 23.0 29.3 14.7 11.6 64.8- 1.3 1.3---- 0.0------------
1999-07-03 20.9 26.2 14.7 11.8 71.0- 5.3 0.3---- 0.0------------
1999-07-02 20.2 24.9 13.7 11.6 73.5- 5.7 2.7---- 0.0------------
1999-07-01 20.4 26.3 12.3 8.8 59.8- 5.7 1.0---- 0.0------------
1999-06-30 20.2 25.4 12.8 10.1 64.5- 6.0 1.0---- 0.0------------
1999-06-29 20.6 26.0 15.2 12.6 71.5- 4.7 2.7---- 0.0------------
1999-06-28 22.4 28.7 13.3 9.7 61.8- 5.0 1.0---- 0.0------------
1999-06-27 19.4 25.9 10.0 8.6 62.3- 2.0 1.7---- 0.0------------
1999-06-26 16.3 22.9 7.3 5.6 69.8- 2.7 1.0---- 0.0------------
1999-06-25 14.3 18.0 10.8 10.6 72.5- 5.7 1.3---- 0.0------------
1999-06-24 12.0 12.9 10.8 10.6 95.5- 8.0 2.7---- 11.6------------
1999-06-23 12.0 16.2 9.9 10.1 96.5- 8.0 5.0---- 9.0------------
1999-06-22 17.5 20.8 15.2 14.6 90.3- 8.0 4.3---- 37.6------------
1999-06-21 19.0 23.4 15.8 15.1 84.3- 7.0 0.3---- 5.1------------
1999-06-20 19.9 24.4 15.5 16.5 83.5- 6.7 1.0---- 0.0------------
1999-06-19 20.4 25.8 15.5 15.1 85.3- 6.3 1.0---- 0.0------------
1999-06-18 19.0 23.9 16.3 17.0 91.8- 7.7 0.7---- 14.2------------
1999-06-17 20.3 24.1 16.5 15.7 87.5- 7.3 1.7---- 0.6------------
1999-06-16 19.3 23.9 16.7 16.5 90.3- 7.7 1.3---- 4.9------------
339.8 ms

 

Źródłem pochodzenia danych jest Instytut Meteorologii i Gospodarki Wodnej – Państwowy Instytut Badawczy. Dane Instytutu Meteorologii i Gospodarki Wodnej – Państwowego Instytutu Badawczego zostały przetworzone.

Dane źródłowe można odnaleźć na stronie https://dane.imgw.pl